createdAt,value
2023-05-19T00:01:37.690Z,99859.38
2023-05-19T00:04:05.495Z,99860.50
2023-05-19T00:06:33.096Z,99858.13
2023-05-19T00:09:05.762Z,99860.25
2023-05-19T00:11:36.363Z,99853.69
2023-05-19T00:14:06.059Z,99858.97
2023-05-19T00:16:34.140Z,99859.31
2023-05-19T00:19:02.685Z,99865.31
2023-05-19T00:21:31.284Z,99860.44
2023-05-19T00:23:58.942Z,99861.41
2023-05-19T00:26:27.813Z,99862.59
2023-05-19T00:28:55.380Z,99861.06
2023-05-19T00:31:22.813Z,99862.41
2023-05-19T00:33:49.855Z,99861.81
2023-05-19T00:36:16.870Z,99855.72
2023-05-19T00:38:44.248Z,99854.00
2023-05-19T00:41:11.879Z,99860.06
2023-05-19T00:43:38.986Z,99854.59
2023-05-19T00:46:07.562Z,99864.84
2023-05-19T00:48:35.233Z,99865.03
2023-05-19T00:51:04.836Z,99856.19
2023-05-19T00:53:34.041Z,99849.47
2023-05-19T00:56:02.606Z,99858.63
2023-05-19T00:58:31.225Z,99852.88
2023-05-19T01:01:04.555Z,99851.41
2023-05-19T01:03:35.613Z,99856.87
2023-05-19T01:06:08.092Z,99857.41
2023-05-19T01:08:37.346Z,99862.00
2023-05-19T01:11:06.856Z,99858.69
2023-05-19T01:13:36.401Z,99856.09
2023-05-19T01:16:26.726Z,99853.56
2023-05-19T01:19:13.321Z,99857.06
2023-05-19T01:21:48.944Z,99851.66
2023-05-19T01:24:45.406Z,99862.94
2023-05-19T01:27:54.451Z,99861.41
2023-05-19T01:30:27.113Z,99863.50
2023-05-19T01:32:58.495Z,99865.31
2023-05-19T01:35:27.618Z,99863.03
2023-05-19T01:37:57.674Z,99856.28
2023-05-19T01:40:26.690Z,99863.72
2023-05-19T01:42:57.875Z,99854.34
2023-05-19T01:45:27.819Z,99848.78
2023-05-19T01:47:58.676Z,99853.00
2023-05-19T01:50:26.469Z,99852.38
2023-05-19T01:52:55.626Z,99857.69
2023-05-19T01:55:23.870Z,99845.34
2023-05-19T01:58:12.312Z,99858.16
2023-05-19T02:00:53.826Z,99860.66
2023-05-19T02:03:45.472Z,99856.81
2023-05-19T02:06:36.091Z,99860.81
2023-05-19T02:09:34.893Z,99850.13
2023-05-19T02:12:10.471Z,99852.88
2023-05-19T02:15:04.825Z,99853.78
2023-05-19T02:17:36.718Z,99848.66
2023-05-19T02:20:05.712Z,99851.63
2023-05-19T02:22:33.105Z,99864.13
2023-05-19T02:25:00.340Z,99852.78
2023-05-19T02:27:27.583Z,99853.63
2023-05-19T02:29:54.925Z,99849.59
2023-05-19T02:32:22.361Z,99844.94
2023-05-19T02:34:49.414Z,99846.09
2023-05-19T02:37:17.739Z,99846.16
2023-05-19T02:39:45.150Z,99843.69
2023-05-19T02:42:14.688Z,99842.28
2023-05-19T02:44:42.037Z,99842.59
2023-05-19T02:47:09.068Z,99844.59
2023-05-19T02:49:36.245Z,99839.06
2023-05-19T02:52:04.646Z,99842.38
2023-05-19T02:54:32.836Z,99843.31
2023-05-19T02:57:00.533Z,99849.91
2023-05-19T02:59:27.886Z,99848.19
2023-05-19T03:01:56.691Z,99842.13
2023-05-19T03:04:23.771Z,99849.91
2023-05-19T03:06:51.136Z,99850.75
2023-05-19T03:09:18.439Z,99853.25
2023-05-19T03:11:45.680Z,99857.59
2023-05-19T03:14:14.065Z,99860.47
2023-05-19T03:16:42.296Z,99860.31
2023-05-19T03:19:09.889Z,99865.47
2023-05-19T03:21:37.597Z,99864.31
2023-05-19T03:24:04.963Z,99860.78
2023-05-19T03:26:33.266Z,99864.22
2023-05-19T03:29:00.971Z,99860.19
2023-05-19T03:31:28.437Z,99865.00
2023-05-19T03:33:55.687Z,99871.37
2023-05-19T03:36:23.623Z,99871.47
2023-05-19T03:38:50.950Z,99861.56
2023-05-19T03:41:18.023Z,99860.72
2023-05-19T03:43:45.501Z,99856.84
2023-05-19T03:46:12.632Z,99857.63
2023-05-19T03:48:41.704Z,99856.59
2023-05-19T03:51:12.292Z,99859.16
2023-05-19T03:53:39.648Z,99859.03
2023-05-19T03:56:07.708Z,99854.56
2023-05-19T03:58:37.022Z,99854.88
2023-05-19T04:01:04.046Z,99856.84
2023-05-19T04:03:31.385Z,99861.88
2023-05-19T04:05:58.514Z,99867.16
2023-05-19T04:08:26.102Z,99871.13
2023-05-19T04:10:53.579Z,99883.28
2023-05-19T04:13:21.736Z,99871.13
2023-05-19T04:15:48.855Z,99873.19
2023-05-19T04:18:16.236Z,99873.13
2023-05-19T04:20:43.449Z,99878.44
2023-05-19T04:23:10.899Z,99888.19
2023-05-19T04:25:38.446Z,99881.38
2023-05-19T04:28:05.478Z,99885.75
2023-05-19T04:30:33.437Z,99886.19
2023-05-19T04:33:03.308Z,99887.75
2023-05-19T04:35:31.369Z,99890.72
2023-05-19T04:38:00.078Z,99893.06
2023-05-19T04:40:31.248Z,99889.50
2023-05-19T04:42:59.090Z,99895.41
2023-05-19T04:45:26.399Z,99899.63
2023-05-19T04:47:57.934Z,99905.53
2023-05-19T04:50:25.286Z,99900.28
2023-05-19T04:52:52.883Z,99896.50
2023-05-19T04:55:20.310Z,99905.00
2023-05-19T04:57:47.970Z,99893.53
2023-05-19T05:00:15.532Z,99895.41
2023-05-19T05:02:43.968Z,99896.66
2023-05-19T05:05:11.143Z,99895.06
2023-05-19T05:07:38.197Z,99902.31
2023-05-19T05:10:07.185Z,99903.25
2023-05-19T05:12:35.114Z,99904.84
2023-05-19T05:15:02.490Z,99909.03
2023-05-19T05:17:30.360Z,99908.78
2023-05-19T05:19:57.729Z,99913.25
2023-05-19T05:22:26.091Z,99918.53
2023-05-19T05:24:54.177Z,99919.59
2023-05-19T05:27:21.414Z,99923.16
2023-05-19T05:29:48.497Z,99921.56
2023-05-19T05:32:17.079Z,99920.38
2023-05-19T05:34:44.829Z,99918.00
2023-05-19T05:37:13.207Z,99918.03
2023-05-19T05:39:42.584Z,99914.12
2023-05-19T05:42:10.855Z,99919.00
2023-05-19T05:44:38.837Z,99918.78
2023-05-19T05:47:07.162Z,99918.44
2023-05-19T05:49:39.146Z,99919.63
2023-05-19T05:52:08.917Z,99926.59
2023-05-19T05:54:38.085Z,99915.91
2023-05-19T05:57:06.323Z,99924.19
2023-05-19T05:59:34.063Z,99918.16
2023-05-19T06:02:01.500Z,99911.41
2023-05-19T06:04:28.939Z,99918.22
2023-05-19T06:07:01.167Z,99921.47
2023-05-19T06:09:30.347Z,99927.28
2023-05-19T06:11:59.224Z,99926.69
2023-05-19T06:14:26.921Z,99924.13
2023-05-19T06:16:55.112Z,99936.94
2023-05-19T06:19:22.290Z,99932.63
2023-05-19T06:21:49.401Z,99938.97
2023-05-19T06:24:16.990Z,99930.31
2023-05-19T06:26:44.033Z,99923.84
2023-05-19T06:29:11.461Z,99929.97
2023-05-19T06:31:38.900Z,99925.28
2023-05-19T06:34:06.453Z,99931.09
2023-05-19T06:36:35.226Z,99935.03
2023-05-19T06:39:02.934Z,99939.53
2023-05-19T06:41:30.782Z,99929.56
2023-05-19T06:43:57.919Z,99938.28
2023-05-19T06:46:25.391Z,99939.28
2023-05-19T06:48:53.081Z,99954.87
2023-05-19T06:51:22.380Z,99950.97
2023-05-19T06:53:50.952Z,99961.59
2023-05-19T06:56:19.006Z,99959.22
2023-05-19T06:58:46.346Z,99963.75
2023-05-19T07:01:13.647Z,99965.34
2023-05-19T07:03:41.914Z,99966.62
2023-05-19T07:06:09.424Z,99964.00
2023-05-19T07:08:37.324Z,99963.41
2023-05-19T07:11:05.187Z,99960.50
2023-05-19T07:13:33.002Z,99963.66
2023-05-19T07:16:00.576Z,99960.31
2023-05-19T07:18:31.759Z,99961.78
2023-05-19T07:21:02.006Z,99956.37
2023-05-19T07:23:29.406Z,99955.37
2023-05-19T07:25:57.013Z,99959.56
2023-05-19T07:28:24.166Z,99947.13
2023-05-19T07:30:51.968Z,99941.59
2023-05-19T07:33:19.177Z,99947.37
2023-05-19T07:35:46.370Z,99944.94
2023-05-19T07:38:13.898Z,99952.78
2023-05-19T07:40:41.052Z,99950.44
2023-05-19T07:43:08.252Z,99947.81
2023-05-19T07:45:35.769Z,99946.31
2023-05-19T07:48:03.110Z,99950.31
2023-05-19T07:50:30.503Z,99946.13
2023-05-19T07:52:58.048Z,99946.53
2023-05-19T07:55:25.115Z,99953.16
2023-05-19T07:57:52.284Z,99942.44
2023-05-19T08:00:20.418Z,99946.53
2023-05-19T08:02:48.048Z,99941.38
2023-05-19T08:05:15.231Z,99933.56
2023-05-19T08:07:42.406Z,99938.75
2023-05-19T08:10:10.063Z,99932.97
2023-05-19T08:12:37.131Z,99934.22
2023-05-19T08:15:04.756Z,99931.84
2023-05-19T08:17:32.234Z,99931.03
2023-05-19T08:20:00.410Z,99929.50
2023-05-19T08:22:28.142Z,99927.34
2023-05-19T08:24:55.589Z,99929.47
2023-05-19T08:27:22.821Z,99932.44
2023-05-19T08:29:50.026Z,99934.06
2023-05-19T08:32:17.993Z,99930.28
2023-05-19T08:34:45.113Z,99932.84
2023-05-19T08:37:12.325Z,99933.69
2023-05-19T08:39:40.063Z,99931.16
2023-05-19T08:42:09.797Z,99932.37
2023-05-19T08:44:39.956Z,99925.59
2023-05-19T08:47:12.577Z,99934.75
2023-05-19T08:49:47.036Z,99935.41
2023-05-19T08:52:53.411Z,99936.22
2023-05-19T08:55:48.076Z,99928.72
2023-05-19T08:58:20.320Z,99919.31
2023-05-19T09:00:48.764Z,99925.84
2023-05-19T09:03:23.261Z,99918.31
2023-05-19T09:05:51.438Z,99929.41
2023-05-19T09:08:19.141Z,99925.75
2023-05-19T09:10:46.390Z,99928.75
2023-05-19T09:13:13.541Z,99931.63
2023-05-19T09:15:42.936Z,99928.81
2023-05-19T09:18:12.904Z,99921.69
2023-05-19T09:20:42.573Z,99924.41
2023-05-19T09:23:16.821Z,99923.44
2023-05-19T09:25:52.453Z,99917.47
2023-05-19T09:28:33.475Z,99919.38
2023-05-19T09:31:10.973Z,99919.22
2023-05-19T09:33:39.739Z,99918.75
2023-05-19T09:36:13.978Z,99910.31
2023-05-19T09:38:41.513Z,99906.25
2023-05-19T09:41:09.525Z,99915.75
2023-05-19T09:43:36.831Z,99908.22
2023-05-19T09:46:05.409Z,99906.12
2023-05-19T09:48:34.579Z,99902.03
2023-05-19T09:51:02.547Z,99901.63
2023-05-19T09:53:31.122Z,99893.56
2023-05-19T09:55:59.118Z,99889.31
2023-05-19T09:58:27.089Z,99878.87
2023-05-19T10:00:57.511Z,99890.34
2023-05-19T10:03:25.563Z,99880.09
2023-05-19T10:05:53.601Z,99890.34
2023-05-19T10:08:21.842Z,99884.41
2023-05-19T10:10:49.315Z,99887.41
2023-05-19T10:13:17.198Z,99888.75
2023-05-19T10:15:57.242Z,99887.91
2023-05-19T10:18:27.354Z,99890.16
2023-05-19T10:20:54.824Z,99879.16
2023-05-19T10:23:22.602Z,99877.59
2023-05-19T10:25:52.617Z,99871.47
2023-05-19T10:28:23.647Z,99874.41
2023-05-19T10:30:54.812Z,99868.72
2023-05-19T10:33:37.230Z,99862.09
2023-05-19T10:36:32.113Z,99866.66
2023-05-19T10:39:13.029Z,99868.75
2023-05-19T10:42:04.323Z,99862.69
2023-05-19T10:44:34.341Z,99864.84
2023-05-19T10:47:01.861Z,99864.87
2023-05-19T10:49:29.118Z,99863.91
2023-05-19T10:51:59.322Z,99859.06
2023-05-19T10:54:46.919Z,99853.84
2023-05-19T10:57:17.845Z,99852.19
2023-05-19T10:59:45.532Z,99852.34
2023-05-19T11:02:42.953Z,99851.81
2023-05-19T11:05:14.327Z,99841.91
2023-05-19T11:07:43.593Z,99839.03
2023-05-19T11:10:11.648Z,99837.53
2023-05-19T11:12:43.882Z,99840.75
2023-05-19T11:15:15.777Z,99840.97
2023-05-19T11:17:48.437Z,99845.00
2023-05-19T11:20:24.969Z,99838.22
2023-05-19T11:23:24.595Z,99846.06
2023-05-19T11:25:54.459Z,99841.75
2023-05-19T11:28:28.218Z,99845.53
2023-05-19T11:30:58.998Z,99842.53
2023-05-19T11:33:27.679Z,99837.31
2023-05-19T11:35:58.401Z,99827.19
2023-05-19T11:38:28.319Z,99833.84
2023-05-19T11:40:56.743Z,99839.94
2023-05-19T11:43:24.894Z,99843.06
2023-05-19T11:45:53.347Z,99841.16
2023-05-19T11:48:22.321Z,99846.75
2023-05-19T11:50:50.216Z,99837.97
2023-05-19T11:53:19.626Z,99833.34
2023-05-19T11:55:48.747Z,99839.66
2023-05-19T11:58:16.844Z,99832.81
2023-05-19T12:00:46.158Z,99836.84
2023-05-19T12:03:13.902Z,99839.38
2023-05-19T12:05:46.069Z,99831.34
2023-05-19T12:08:14.812Z,99829.84
2023-05-19T12:10:41.880Z,99828.66
2023-05-19T12:13:09.990Z,99832.84
2023-05-19T12:15:38.894Z,99832.06
2023-05-19T12:18:06.734Z,99815.66
2023-05-19T12:20:36.174Z,99815.56
2023-05-19T12:23:04.495Z,99821.09
2023-05-19T12:25:32.248Z,99806.84
2023-05-19T12:28:02.823Z,99803.31
2023-05-19T12:30:31.583Z,99806.38
2023-05-19T12:32:59.587Z,99793.19
2023-05-19T12:35:34.714Z,99790.38
2023-05-19T12:38:06.596Z,99786.41
2023-05-19T12:40:40.409Z,99785.03
2023-05-19T12:43:09.670Z,99784.19
2023-05-19T12:45:38.293Z,99773.31
2023-05-19T12:48:18.207Z,99776.44
2023-05-19T12:50:45.857Z,99779.16
2023-05-19T12:53:14.237Z,99775.53
2023-05-19T12:55:45.449Z,99776.50
2023-05-19T12:58:13.498Z,99769.03
2023-05-19T13:00:42.600Z,99773.41
2023-05-19T13:03:18.988Z,99771.44
2023-05-19T13:05:49.762Z,99769.66
2023-05-19T13:08:22.045Z,99754.84
2023-05-19T13:10:49.760Z,99759.56
2023-05-19T13:13:17.648Z,99758.03
2023-05-19T13:15:46.013Z,99761.78
2023-05-19T13:18:13.769Z,99763.63
2023-05-19T13:20:42.747Z,99751.63
2023-05-19T13:23:11.077Z,99749.69
2023-05-19T13:25:38.487Z,99758.38
2023-05-19T13:28:06.028Z,99750.88
2023-05-19T13:30:38.585Z,99747.75
2023-05-19T13:33:06.601Z,99745.69
2023-05-19T13:35:37.403Z,99747.34
2023-05-19T13:38:06.771Z,99740.88
2023-05-19T13:40:35.094Z,99737.59
2023-05-19T13:43:03.587Z,99733.28
2023-05-19T13:45:30.881Z,99729.53
2023-05-19T13:47:58.324Z,99722.78
2023-05-19T13:50:25.566Z,99728.22
2023-05-19T13:52:52.662Z,99735.53
2023-05-19T13:55:20.150Z,99718.00
2023-05-19T13:57:47.267Z,99719.97
2023-05-19T14:00:14.843Z,99720.41
2023-05-19T14:02:42.502Z,99725.81
2023-05-19T14:05:10.172Z,99716.47
2023-05-19T14:07:37.177Z,99712.75
2023-05-19T14:10:08.415Z,99713.41
2023-05-19T14:12:49.339Z,99713.94
2023-05-19T14:15:23.833Z,99717.66
2023-05-19T14:17:51.062Z,99714.81
2023-05-19T14:20:18.260Z,99713.16
2023-05-19T14:22:45.674Z,99717.69
2023-05-19T14:25:12.857Z,99716.34
2023-05-19T14:27:40.259Z,99717.13
2023-05-19T14:30:08.711Z,99714.56
2023-05-19T14:32:36.052Z,99715.81
2023-05-19T14:35:03.584Z,99723.06
2023-05-19T14:37:32.006Z,99718.50
2023-05-19T14:39:59.574Z,99721.81
2023-05-19T14:42:26.810Z,99719.56
2023-05-19T14:44:54.124Z,99714.22
2023-05-19T14:47:21.373Z,99715.56
2023-05-19T14:49:49.145Z,99713.28
2023-05-19T14:52:17.830Z,99713.44
2023-05-19T14:54:44.927Z,99710.00
2023-05-19T14:57:12.053Z,99703.13
2023-05-19T14:59:39.558Z,99706.63
2023-05-19T15:02:07.351Z,99708.69
2023-05-19T15:04:34.413Z,99704.69
2023-05-19T15:09:31.815Z,99708.09
2023-05-19T15:12:01.212Z,99711.66
2023-05-19T15:14:30.415Z,99713.72
2023-05-19T15:16:58.709Z,99710.50
2023-05-19T15:19:26.165Z,99706.47
2023-05-19T15:21:53.902Z,99711.56
2023-05-19T15:24:21.119Z,99708.78
2023-05-19T15:26:48.371Z,99701.84
2023-05-19T15:29:15.888Z,99706.78
2023-05-19T15:31:43.243Z,99706.31
2023-05-19T15:34:10.701Z,99711.16
2023-05-19T15:36:38.139Z,99704.03
2023-05-19T15:39:06.596Z,99707.91
2023-05-19T15:41:33.767Z,99704.56
2023-05-19T15:44:02.379Z,99704.75
2023-05-19T15:46:30.225Z,99705.63
2023-05-19T15:48:57.308Z,99704.31
2023-05-19T15:51:25.256Z,99705.19
2023-05-19T15:53:52.838Z,99703.50
2023-05-19T15:56:20.059Z,99705.16
2023-05-19T15:58:47.437Z,99701.28
2023-05-19T16:01:15.574Z,99701.75
2023-05-19T16:03:43.605Z,99698.59
2023-05-19T16:06:11.074Z,99699.22
2023-05-19T16:08:38.312Z,99696.53
2023-05-19T16:11:06.043Z,99701.81
2023-05-19T16:13:34.019Z,99704.44
2023-05-19T16:18:29.354Z,99694.16
2023-05-19T16:20:56.660Z,99689.22
2023-05-19T16:23:24.816Z,99692.09
2023-05-19T16:25:52.964Z,99696.28
2023-05-19T16:28:22.436Z,99699.41
2023-05-19T16:30:50.985Z,99703.75
2023-05-19T16:33:18.405Z,99700.50
2023-05-19T16:35:45.623Z,99700.00
2023-05-19T16:38:12.761Z,99704.09
2023-05-19T16:40:40.138Z,99704.03
2023-05-19T16:43:07.241Z,99707.25
2023-05-19T16:45:34.439Z,99708.56
2023-05-19T16:48:02.102Z,99706.06
2023-05-19T16:50:29.641Z,99704.84
2023-05-19T16:52:56.755Z,99699.44
2023-05-19T16:55:25.414Z,99697.63
2023-05-19T16:57:52.656Z,99696.09
2023-05-19T17:00:20.369Z,99696.97
2023-05-19T17:02:47.842Z,99699.38
2023-05-19T17:05:15.175Z,99692.06
2023-05-19T17:07:42.292Z,99692.34
2023-05-19T17:10:09.839Z,99688.37
2023-05-19T17:12:37.000Z,99685.72
2023-05-19T17:15:04.543Z,99687.69
2023-05-19T17:17:31.992Z,99682.47
2023-05-19T17:19:59.702Z,99688.41
2023-05-19T17:22:28.734Z,99690.94
2023-05-19T17:24:57.544Z,99690.47
2023-05-19T17:27:24.751Z,99697.50
2023-05-19T17:29:51.882Z,99693.28
2023-05-19T17:32:22.116Z,99698.38
2023-05-19T17:34:49.290Z,99704.44
2023-05-19T17:37:19.027Z,99707.84
2023-05-19T17:39:46.379Z,99705.53
2023-05-19T17:42:13.522Z,99706.97
2023-05-19T17:44:41.344Z,99713.44
2023-05-19T17:47:08.740Z,99707.75
2023-05-19T17:49:36.051Z,99722.41
2023-05-19T17:52:03.566Z,99718.00
2023-05-19T17:54:31.353Z,99715.81
2023-05-19T17:57:01.616Z,99722.66
2023-05-19T17:59:30.075Z,99724.50
2023-05-19T18:01:57.784Z,99713.84
2023-05-19T18:04:25.634Z,99721.84
2023-05-19T18:06:53.551Z,99714.62
2023-05-19T18:09:23.165Z,99716.91
2023-05-19T18:11:50.653Z,99711.87
2023-05-19T18:14:17.964Z,99715.16
2023-05-19T18:16:45.194Z,99720.41
2023-05-19T18:19:12.702Z,99710.97
2023-05-19T18:21:39.782Z,99712.22
2023-05-19T18:24:07.093Z,99716.53
2023-05-19T18:26:34.558Z,99724.69
2023-05-19T18:29:04.831Z,99715.25
2023-05-19T18:31:32.057Z,99718.87
2023-05-19T18:33:59.622Z,99722.50
2023-05-19T18:36:26.870Z,99723.59
2023-05-19T18:38:55.149Z,99728.34
2023-05-19T18:41:22.854Z,99722.34
2023-05-19T18:43:50.117Z,99724.13
2023-05-19T18:46:18.104Z,99725.81
2023-05-19T18:48:45.651Z,99725.56
2023-05-19T18:51:15.697Z,99720.91
2023-05-19T18:53:42.788Z,99725.97
2023-05-19T18:56:13.067Z,99724.97
2023-05-19T18:58:40.228Z,99728.31
2023-05-19T19:01:07.540Z,99737.84
2023-05-19T19:03:34.977Z,99740.09
2023-05-19T19:06:02.077Z,99740.53
2023-05-19T19:08:29.193Z,99745.59
2023-05-19T19:11:00.221Z,99739.12
2023-05-19T19:13:28.194Z,99739.56
2023-05-19T19:15:55.306Z,99743.84
2023-05-19T19:18:22.755Z,99755.16
2023-05-19T19:20:49.960Z,99750.69
2023-05-19T19:23:17.037Z,99752.84
2023-05-19T19:25:44.428Z,99756.69
2023-05-19T19:28:12.896Z,99759.16
2023-05-19T19:30:39.974Z,99768.59
2023-05-19T19:33:08.701Z,99767.34
2023-05-19T19:35:35.794Z,99770.41
2023-05-19T19:38:02.824Z,99763.69
2023-05-19T19:40:30.269Z,99771.16
2023-05-19T19:42:57.376Z,99775.84
2023-05-19T19:45:24.568Z,99770.63
2023-05-19T19:47:52.105Z,99764.44
2023-05-19T19:50:19.279Z,99770.53
2023-05-19T19:52:46.440Z,99773.28
2023-05-19T19:55:13.831Z,99773.06
2023-05-19T19:57:40.926Z,99773.00
2023-05-19T20:00:09.148Z,99772.66
2023-05-19T20:02:51.650Z,99770.75
2023-05-19T20:05:26.898Z,99775.19
2023-05-19T20:07:54.291Z,99765.22
2023-05-19T20:10:21.433Z,99769.66
2023-05-19T20:12:50.521Z,99769.25
2023-05-19T20:15:18.031Z,99772.75
2023-05-19T20:17:45.163Z,99771.19
2023-05-19T20:20:12.758Z,99768.59
2023-05-19T20:22:40.214Z,99768.59
2023-05-19T20:25:07.829Z,99767.53
2023-05-19T20:27:34.912Z,99767.53
2023-05-19T20:30:02.330Z,99768.41
2023-05-19T20:32:29.442Z,99769.88
2023-05-19T20:34:56.684Z,99777.78
2023-05-19T20:37:24.176Z,99766.69
2023-05-19T20:39:51.371Z,99773.19
2023-05-19T20:42:18.487Z,99772.56
2023-05-19T20:44:45.880Z,99769.34
2023-05-19T20:47:13.006Z,99766.97
2023-05-19T20:49:40.015Z,99761.28
2023-05-19T20:52:07.432Z,99761.81
2023-05-19T20:54:34.612Z,99752.06
2023-05-19T20:57:06.358Z,99742.28
2023-05-19T20:59:33.782Z,99739.81
2023-05-19T21:02:01.138Z,99745.78
2023-05-19T21:04:28.425Z,99739.81
2023-05-19T21:06:56.054Z,99742.81
2023-05-19T21:09:23.233Z,99744.50
2023-05-19T21:11:53.149Z,99748.53
2023-05-19T21:14:23.552Z,99755.47
2023-05-19T21:16:53.853Z,99751.66
2023-05-19T21:19:21.939Z,99754.53
2023-05-19T21:21:49.600Z,99762.34
2023-05-19T21:24:16.823Z,99760.47
2023-05-19T21:26:44.282Z,99759.63
2023-05-19T21:29:11.315Z,99754.72
2023-05-19T21:31:38.553Z,99763.06
2023-05-19T21:34:07.716Z,99760.62
2023-05-19T21:36:35.280Z,99764.56
2023-05-19T21:39:03.682Z,99755.59
2023-05-19T21:41:33.538Z,99754.12
2023-05-19T21:44:00.577Z,99758.59
2023-05-19T21:46:29.198Z,99743.91
2023-05-19T21:48:56.785Z,99748.91
2023-05-19T21:51:23.805Z,99757.66
2023-05-19T21:53:50.857Z,99755.63
2023-05-19T21:56:18.312Z,99756.56
2023-05-19T21:58:45.447Z,99757.53
2023-05-19T22:01:13.238Z,99754.44
2023-05-19T22:03:40.697Z,99752.75
2023-05-19T22:06:08.303Z,99747.41
2023-05-19T22:08:35.549Z,99737.91
2023-05-19T22:11:02.888Z,99743.25
2023-05-19T22:13:30.301Z,99734.63
2023-05-19T22:15:57.950Z,99734.63
2023-05-19T22:18:25.383Z,99723.53
2023-05-19T22:20:52.428Z,99726.84
2023-05-19T22:23:19.516Z,99716.84
2023-05-19T22:25:46.990Z,99718.34
2023-05-19T22:28:14.135Z,99714.28
2023-05-19T22:30:42.351Z,99706.41
2023-05-19T22:33:11.402Z,99705.09
2023-05-19T22:35:38.708Z,99698.94
2023-05-19T22:38:07.512Z,99696.28
2023-05-19T22:40:37.133Z,99698.09
2023-05-19T22:43:04.536Z,99697.47
2023-05-19T22:45:31.943Z,99696.59
2023-05-19T22:47:59.533Z,99698.81
2023-05-19T22:50:26.753Z,99696.72
2023-05-19T22:52:53.981Z,99698.63
2023-05-19T22:55:21.362Z,99703.63
2023-05-19T22:57:48.523Z,99698.09
2023-05-19T23:00:18.516Z,99698.31
2023-05-19T23:02:46.187Z,99693.63
2023-05-19T23:05:13.388Z,99696.41
2023-05-19T23:07:40.844Z,99695.84
2023-05-19T23:10:08.637Z,99685.00
2023-05-19T23:12:35.845Z,99688.81
2023-05-19T23:15:03.623Z,99690.38
2023-05-19T23:17:31.082Z,99688.81
2023-05-19T23:19:58.238Z,99684.00
2023-05-19T23:22:25.407Z,99676.75
2023-05-19T23:24:52.775Z,99676.06
2023-05-19T23:27:19.867Z,99676.25
2023-05-19T23:29:50.874Z,99666.97
2023-05-19T23:32:18.382Z,99669.94
2023-05-19T23:34:47.396Z,99675.03
2023-05-19T23:37:14.450Z,99677.31
2023-05-19T23:39:41.916Z,99679.09
2023-05-19T23:42:09.017Z,99674.84
2023-05-19T23:44:36.171Z,99657.31
2023-05-19T23:47:03.628Z,99663.84
2023-05-19T23:49:30.801Z,99657.84
2023-05-19T23:51:57.864Z,99654.31
2023-05-19T23:54:26.612Z,99656.25
2023-05-19T23:56:55.782Z,99650.69
2023-05-19T23:59:23.116Z,99644.72
